sensor_id;sensor_type;location;lat;lon;timestamp;P1;durP1;ratioP1;P2;durP2;ratioP2
10888;SDS011;5497;51.388;6.780;2023-03-01T00:01:27;18.93;;;9.20;;
10888;SDS011;5497;51.388;6.780;2023-03-01T00:03:56;16.43;;;8.37;;
10888;SDS011;5497;51.388;6.780;2023-03-01T00:06:23;19.20;;;8.93;;
10888;SDS011;5497;51.388;6.780;2023-03-01T00:08:52;18.03;;;8.40;;
10888;SDS011;5497;51.388;6.780;2023-03-01T00:11:20;19.13;;;9.20;;
10888;SDS011;5497;51.388;6.780;2023-03-01T00:13:51;22.77;;;9.27;;
10888;SDS011;5497;51.388;6.780;2023-03-01T00:16:19;21.33;;;9.60;;
10888;SDS011;5497;51.388;6.780;2023-03-01T00:18:47;17.63;;;9.13;;
10888;SDS011;5497;51.388;6.780;2023-03-01T00:21:15;15.77;;;8.50;;
10888;SDS011;5497;51.388;6.780;2023-03-01T00:23:42;20.23;;;8.93;;
10888;SDS011;5497;51.388;6.780;2023-03-01T00:26:12;17.23;;;8.73;;
10888;SDS011;5497;51.388;6.780;2023-03-01T00:28:40;16.07;;;8.53;;
10888;SDS011;5497;51.388;6.780;2023-03-01T00:31:08;22.07;;;8.43;;
10888;SDS011;5497;51.388;6.780;2023-03-01T00:33:37;18.77;;;9.57;;
10888;SDS011;5497;51.388;6.780;2023-03-01T00:36:04;18.60;;;8.90;;
10888;SDS011;5497;51.388;6.780;2023-03-01T00:38:34;19.93;;;8.43;;
10888;SDS011;5497;51.388;6.780;2023-03-01T00:41:05;21.17;;;8.93;;
10888;SDS011;5497;51.388;6.780;2023-03-01T00:43:33;21.90;;;9.07;;
10888;SDS011;5497;51.388;6.780;2023-03-01T00:46:01;22.43;;;8.57;;
10888;SDS011;5497;51.388;6.780;2023-03-01T00:48:29;19.23;;;8.70;;
10888;SDS011;5497;51.388;6.780;2023-03-01T00:50:56;20.93;;;9.03;;
10888;SDS011;5497;51.388;6.780;2023-03-01T00:53:23;18.90;;;8.97;;
10888;SDS011;5497;51.388;6.780;2023-03-01T00:55:50;18.07;;;8.20;;
10888;SDS011;5497;51.388;6.780;2023-03-01T00:58:17;17.63;;;8.93;;
10888;SDS011;5497;51.388;6.780;2023-03-01T01:00:45;18.17;;;8.50;;
10888;SDS011;5497;51.388;6.780;2023-03-01T01:03:14;19.73;;;9.50;;
10888;SDS011;5497;51.388;6.780;2023-03-01T01:05:40;20.03;;;9.20;;
10888;SDS011;5497;51.388;6.780;2023-03-01T01:08:07;22.87;;;9.13;;
10888;SDS011;5497;51.388;6.780;2023-03-01T01:10:34;17.97;;;8.70;;
10888;SDS011;5497;51.388;6.780;2023-03-01T01:13:01;18.23;;;8.43;;
10888;SDS011;5497;51.388;6.780;2023-03-01T01:15:29;20.93;;;9.23;;
10888;SDS011;5497;51.388;6.780;2023-03-01T01:18:02;18.47;;;9.20;;
10888;SDS011;5497;51.388;6.780;2023-03-01T01:20:29;23.47;;;9.33;;
10888;SDS011;5497;51.388;6.780;2023-03-01T01:22:57;22.27;;;9.13;;
10888;SDS011;5497;51.388;6.780;2023-03-01T01:25:24;20.43;;;9.90;;
10888;SDS011;5497;51.388;6.780;2023-03-01T01:27:51;20.70;;;9.57;;
10888;SDS011;5497;51.388;6.780;2023-03-01T01:30:18;18.00;;;9.13;;
10888;SDS011;5497;51.388;6.780;2023-03-01T01:32:45;17.13;;;8.17;;
10888;SDS011;5497;51.388;6.780;2023-03-01T01:35:13;21.10;;;9.43;;
10888;SDS011;5497;51.388;6.780;2023-03-01T01:37:40;15.97;;;8.90;;
10888;SDS011;5497;51.388;6.780;2023-03-01T01:40:08;24.60;;;10.37;;
10888;SDS011;5497;51.388;6.780;2023-03-01T01:42:36;19.50;;;10.00;;
10888;SDS011;5497;51.388;6.780;2023-03-01T01:48:03;18.73;;;9.40;;
10888;SDS011;5497;51.388;6.780;2023-03-01T01:50:38;15.77;;;9.33;;
10888;SDS011;5497;51.388;6.780;2023-03-01T01:53:07;20.00;;;9.00;;
10888;SDS011;5497;51.388;6.780;2023-03-01T01:55:39;19.77;;;9.03;;
10888;SDS011;5497;51.388;6.780;2023-03-01T01:58:10;20.17;;;9.70;;
10888;SDS011;5497;51.388;6.780;2023-03-01T02:00:40;19.50;;;9.53;;
10888;SDS011;5497;51.388;6.780;2023-03-01T02:03:08;18.73;;;9.33;;
10888;SDS011;5497;51.388;6.780;2023-03-01T02:05:42;25.20;;;10.90;;
10888;SDS011;5497;51.388;6.780;2023-03-01T02:08:13;16.47;;;8.67;;
10888;SDS011;5497;51.388;6.780;2023-03-01T02:10:43;18.27;;;9.13;;
10888;SDS011;5497;51.388;6.780;2023-03-01T02:13:11;18.20;;;9.20;;
10888;SDS011;5497;51.388;6.780;2023-03-01T02:15:39;21.77;;;8.77;;
10888;SDS011;5497;51.388;6.780;2023-03-01T02:18:09;16.47;;;8.80;;
10888;SDS011;5497;51.388;6.780;2023-03-01T02:20:39;17.77;;;9.30;;
10888;SDS011;5497;51.388;6.780;2023-03-01T02:23:11;18.67;;;8.90;;
10888;SDS011;5497;51.388;6.780;2023-03-01T02:25:41;22.13;;;10.13;;
10888;SDS011;5497;51.388;6.780;2023-03-01T02:32:04;20.40;;;10.20;;
10888;SDS011;5497;51.388;6.780;2023-03-01T02:34:32;25.23;;;9.53;;
10888;SDS011;5497;51.388;6.780;2023-03-01T02:37:01;26.27;;;10.77;;
10888;SDS011;5497;51.388;6.780;2023-03-01T02:39:31;23.30;;;9.87;;
10888;SDS011;5497;51.388;6.780;2023-03-01T02:42:00;24.37;;;10.37;;
10888;SDS011;5497;51.388;6.780;2023-03-01T02:44:28;20.70;;;9.73;;
10888;SDS011;5497;51.388;6.780;2023-03-01T02:46:56;21.87;;;11.00;;
10888;SDS011;5497;51.388;6.780;2023-03-01T02:49:29;23.87;;;9.77;;
10888;SDS011;5497;51.388;6.780;2023-03-01T02:52:16;21.43;;;10.63;;
10888;SDS011;5497;51.388;6.780;2023-03-01T02:54:56;21.60;;;10.47;;
10888;SDS011;5497;51.388;6.780;2023-03-01T02:57:27;23.43;;;10.97;;
10888;SDS011;5497;51.388;6.780;2023-03-01T02:59:56;24.23;;;10.60;;
10888;SDS011;5497;51.388;6.780;2023-03-01T03:02:27;22.33;;;10.57;;
10888;SDS011;5497;51.388;6.780;2023-03-01T03:05:08;23.60;;;10.93;;
10888;SDS011;5497;51.388;6.780;2023-03-01T03:07:39;25.17;;;11.33;;
10888;SDS011;5497;51.388;6.780;2023-03-01T03:10:08;24.13;;;10.83;;
10888;SDS011;5497;51.388;6.780;2023-03-01T03:12:37;26.53;;;11.70;;
10888;SDS011;5497;51.388;6.780;2023-03-01T03:15:06;22.63;;;11.30;;
10888;SDS011;5497;51.388;6.780;2023-03-01T03:17:35;24.37;;;10.63;;
10888;SDS011;5497;51.388;6.780;2023-03-01T03:20:02;22.40;;;10.90;;
10888;SDS011;5497;51.388;6.780;2023-03-01T03:22:31;25.40;;;11.10;;
10888;SDS011;5497;51.388;6.780;2023-03-01T03:24:59;25.00;;;10.93;;
10888;SDS011;5497;51.388;6.780;2023-03-01T03:27:27;26.23;;;11.03;;
10888;SDS011;5497;51.388;6.780;2023-03-01T03:29:54;21.00;;;11.03;;
10888;SDS011;5497;51.388;6.780;2023-03-01T03:32:20;21.60;;;10.60;;
10888;SDS011;5497;51.388;6.780;2023-03-01T03:34:47;23.40;;;11.33;;
10888;SDS011;5497;51.388;6.780;2023-03-01T03:37:14;25.17;;;10.87;;
10888;SDS011;5497;51.388;6.780;2023-03-01T03:39:56;20.57;;;10.80;;
10888;SDS011;5497;51.388;6.780;2023-03-01T03:42:24;25.90;;;11.40;;
10888;SDS011;5497;51.388;6.780;2023-03-01T03:44:51;22.23;;;10.40;;
10888;SDS011;5497;51.388;6.780;2023-03-01T03:47:18;23.47;;;10.50;;
10888;SDS011;5497;51.388;6.780;2023-03-01T03:49:45;20.80;;;9.07;;
10888;SDS011;5497;51.388;6.780;2023-03-01T03:52:11;20.67;;;9.97;;
10888;SDS011;5497;51.388;6.780;2023-03-01T03:54:39;20.97;;;10.43;;
10888;SDS011;5497;51.388;6.780;2023-03-01T03:57:07;19.20;;;9.80;;
10888;SDS011;5497;51.388;6.780;2023-03-01T03:59:34;21.00;;;10.63;;
10888;SDS011;5497;51.388;6.780;2023-03-01T04:02:03;20.43;;;10.83;;
10888;SDS011;5497;51.388;6.780;2023-03-01T04:04:31;22.80;;;10.87;;
10888;SDS011;5497;51.388;6.780;2023-03-01T04:06:58;24.00;;;10.33;;
10888;SDS011;5497;51.388;6.780;2023-03-01T04:09:25;18.70;;;9.40;;
10888;SDS011;5497;51.388;6.780;2023-03-01T04:11:52;23.57;;;11.00;;
10888;SDS011;5497;51.388;6.780;2023-03-01T04:17:01;19.70;;;10.23;;
10888;SDS011;5497;51.388;6.780;2023-03-01T04:19:30;22.40;;;10.60;;
10888;SDS011;5497;51.388;6.780;2023-03-01T04:22:00;23.80;;;11.03;;
10888;SDS011;5497;51.388;6.780;2023-03-01T04:24:32;19.50;;;10.40;;
10888;SDS011;5497;51.388;6.780;2023-03-01T04:26:59;23.30;;;10.67;;
10888;SDS011;5497;51.388;6.780;2023-03-01T04:29:26;21.07;;;10.67;;
10888;SDS011;5497;51.388;6.780;2023-03-01T04:31:53;23.37;;;12.07;;
10888;SDS011;5497;51.388;6.780;2023-03-01T04:34:21;24.97;;;11.07;;
10888;SDS011;5497;51.388;6.780;2023-03-01T04:36:48;28.47;;;12.07;;
10888;SDS011;5497;51.388;6.780;2023-03-01T04:39:15;23.83;;;11.83;;
10888;SDS011;5497;51.388;6.780;2023-03-01T04:41:42;23.33;;;11.13;;
10888;SDS011;5497;51.388;6.780;2023-03-01T04:44:09;23.17;;;10.43;;
10888;SDS011;5497;51.388;6.780;2023-03-01T04:46:36;24.00;;;11.20;;
10888;SDS011;5497;51.388;6.780;2023-03-01T04:49:03;22.10;;;11.00;;
10888;SDS011;5497;51.388;6.780;2023-03-01T04:51:32;23.30;;;11.47;;
10888;SDS011;5497;51.388;6.780;2023-03-01T04:53:58;26.27;;;11.27;;
10888;SDS011;5497;51.388;6.780;2023-03-01T04:56:26;26.43;;;11.67;;
10888;SDS011;5497;51.388;6.780;2023-03-01T04:58:53;26.20;;;10.90;;
10888;SDS011;5497;51.388;6.780;2023-03-01T05:01:20;23.60;;;10.87;;
10888;SDS011;5497;51.388;6.780;2023-03-01T05:03:48;21.87;;;10.77;;
10888;SDS011;5497;51.388;6.780;2023-03-01T05:06:17;23.47;;;10.73;;
10888;SDS011;5497;51.388;6.780;2023-03-01T05:08:46;22.37;;;10.20;;
10888;SDS011;5497;51.388;6.780;2023-03-01T05:11:13;24.83;;;11.03;;
10888;SDS011;5497;51.388;6.780;2023-03-01T05:13:40;23.23;;;11.17;;
10888;SDS011;5497;51.388;6.780;2023-03-01T05:16:08;23.63;;;10.30;;
10888;SDS011;5497;51.388;6.780;2023-03-01T05:18:37;19.03;;;9.90;;
10888;SDS011;5497;51.388;6.780;2023-03-01T05:21:05;23.63;;;11.10;;
10888;SDS011;5497;51.388;6.780;2023-03-01T05:23:34;19.63;;;10.53;;
10888;SDS011;5497;51.388;6.780;2023-03-01T05:26:04;21.43;;;10.40;;
10888;SDS011;5497;51.388;6.780;2023-03-01T05:28:32;21.30;;;9.37;;
10888;SDS011;5497;51.388;6.780;2023-03-01T05:30:59;23.43;;;11.77;;
10888;SDS011;5497;51.388;6.780;2023-03-01T05:33:26;22.23;;;10.33;;
10888;SDS011;5497;51.388;6.780;2023-03-01T05:35:54;22.57;;;11.37;;
10888;SDS011;5497;51.388;6.780;2023-03-01T05:38:21;24.67;;;10.83;;
10888;SDS011;5497;51.388;6.780;2023-03-01T05:43:40;22.43;;;10.37;;
10888;SDS011;5497;51.388;6.780;2023-03-01T05:46:09;21.87;;;10.20;;
10888;SDS011;5497;51.388;6.780;2023-03-01T05:48:38;23.03;;;10.73;;
10888;SDS011;5497;51.388;6.780;2023-03-01T05:51:05;24.00;;;12.20;;
10888;SDS011;5497;51.388;6.780;2023-03-01T05:53:32;17.50;;;9.47;;
10888;SDS011;5497;51.388;6.780;2023-03-01T05:55:59;24.17;;;10.50;;
10888;SDS011;5497;51.388;6.780;2023-03-01T05:58:26;24.70;;;10.63;;
10888;SDS011;5497;51.388;6.780;2023-03-01T06:00:54;27.67;;;11.37;;
10888;SDS011;5497;51.388;6.780;2023-03-01T06:03:21;24.47;;;11.10;;
10888;SDS011;5497;51.388;6.780;2023-03-01T06:05:48;22.07;;;9.87;;
10888;SDS011;5497;51.388;6.780;2023-03-01T06:08:14;23.33;;;9.23;;
10888;SDS011;5497;51.388;6.780;2023-03-01T06:10:41;26.10;;;12.07;;
10888;SDS011;5497;51.388;6.780;2023-03-01T06:13:08;26.20;;;11.70;;
10888;SDS011;5497;51.388;6.780;2023-03-01T06:15:35;20.43;;;9.40;;
10888;SDS011;5497;51.388;6.780;2023-03-01T06:18:04;22.27;;;9.80;;
10888;SDS011;5497;51.388;6.780;2023-03-01T06:20:31;21.93;;;10.17;;
10888;SDS011;5497;51.388;6.780;2023-03-01T06:22:58;20.63;;;9.57;;
10888;SDS011;5497;51.388;6.780;2023-03-01T06:25:25;24.00;;;10.67;;
10888;SDS011;5497;51.388;6.780;2023-03-01T06:27:53;23.03;;;10.40;;
10888;SDS011;5497;51.388;6.780;2023-03-01T06:33:01;21.63;;;9.70;;
10888;SDS011;5497;51.388;6.780;2023-03-01T06:35:30;25.53;;;11.47;;
10888;SDS011;5497;51.388;6.780;2023-03-01T06:37:58;23.57;;;10.63;;
10888;SDS011;5497;51.388;6.780;2023-03-01T06:40:26;24.80;;;10.83;;
10888;SDS011;5497;51.388;6.780;2023-03-01T06:42:53;22.47;;;10.60;;
10888;SDS011;5497;51.388;6.780;2023-03-01T06:45:20;23.07;;;10.80;;
10888;SDS011;5497;51.388;6.780;2023-03-01T06:47:47;28.50;;;11.43;;
10888;SDS011;5497;51.388;6.780;2023-03-01T06:50:15;25.40;;;11.57;;
10888;SDS011;5497;51.388;6.780;2023-03-01T06:52:44;23.70;;;11.97;;
10888;SDS011;5497;51.388;6.780;2023-03-01T06:55:12;22.83;;;11.23;;
10888;SDS011;5497;51.388;6.780;2023-03-01T06:57:39;23.13;;;11.27;;
10888;SDS011;5497;51.388;6.780;2023-03-01T07:00:07;23.10;;;10.50;;
10888;SDS011;5497;51.388;6.780;2023-03-01T07:02:35;21.00;;;10.37;;
10888;SDS011;5497;51.388;6.780;2023-03-01T07:05:02;23.97;;;11.03;;
10888;SDS011;5497;51.388;6.780;2023-03-01T07:07:29;18.57;;;9.60;;
10888;SDS011;5497;51.388;6.780;2023-03-01T07:09:57;22.60;;;10.30;;
10888;SDS011;5497;51.388;6.780;2023-03-01T07:12:24;20.93;;;9.53;;
10888;SDS011;5497;51.388;6.780;2023-03-01T07:14:51;21.20;;;8.83;;
10888;SDS011;5497;51.388;6.780;2023-03-01T07:17:18;19.63;;;8.67;;
10888;SDS011;5497;51.388;6.780;2023-03-01T07:19:45;15.63;;;8.73;;
10888;SDS011;5497;51.388;6.780;2023-03-01T07:22:11;15.90;;;9.07;;
10888;SDS011;5497;51.388;6.780;2023-03-01T07:24:38;16.00;;;7.50;;
10888;SDS011;5497;51.388;6.780;2023-03-01T07:27:08;16.93;;;8.07;;
10888;SDS011;5497;51.388;6.780;2023-03-01T07:29:35;15.83;;;8.30;;
10888;SDS011;5497;51.388;6.780;2023-03-01T07:32:02;15.20;;;8.30;;
10888;SDS011;5497;51.388;6.780;2023-03-01T07:34:29;14.27;;;8.10;;
10888;SDS011;5497;51.388;6.780;2023-03-01T07:36:56;15.07;;;7.90;;
10888;SDS011;5497;51.388;6.780;2023-03-01T07:39:23;15.17;;;7.77;;
10888;SDS011;5497;51.388;6.780;2023-03-01T07:41:50;14.53;;;7.90;;
10888;SDS011;5497;51.388;6.780;2023-03-01T07:44:22;31.53;;;8.80;;
10888;SDS011;5497;51.388;6.780;2023-03-01T07:46:49;10.57;;;6.53;;
10888;SDS011;5497;51.388;6.780;2023-03-01T07:49:17;11.97;;;7.50;;
10888;SDS011;5497;51.388;6.780;2023-03-01T07:51:44;13.07;;;7.27;;
10888;SDS011;5497;51.388;6.780;2023-03-01T07:54:11;10.43;;;6.57;;
10888;SDS011;5497;51.388;6.780;2023-03-01T07:56:38;10.63;;;6.23;;
10888;SDS011;5497;51.388;6.780;2023-03-01T07:59:05;12.53;;;7.77;;
10888;SDS011;5497;51.388;6.780;2023-03-01T08:01:34;9.80;;;6.37;;
10888;SDS011;5497;51.388;6.780;2023-03-01T08:04:00;12.73;;;7.23;;
10888;SDS011;5497;51.388;6.780;2023-03-01T08:06:29;12.13;;;7.07;;
10888;SDS011;5497;51.388;6.780;2023-03-01T08:08:56;12.53;;;7.30;;
10888;SDS011;5497;51.388;6.780;2023-03-01T08:11:23;11.17;;;7.13;;
10888;SDS011;5497;51.388;6.780;2023-03-01T08:13:50;10.70;;;6.93;;
10888;SDS011;5497;51.388;6.780;2023-03-01T08:16:17;9.80;;;5.73;;
10888;SDS011;5497;51.388;6.780;2023-03-01T08:18:45;11.07;;;6.80;;
10888;SDS011;5497;51.388;6.780;2023-03-01T08:21:12;11.23;;;6.97;;
10888;SDS011;5497;51.388;6.780;2023-03-01T08:23:41;11.67;;;5.67;;
10888;SDS011;5497;51.388;6.780;2023-03-01T08:26:10;9.57;;;4.77;;
10888;SDS011;5497;51.388;6.780;2023-03-01T08:28:38;9.07;;;5.87;;
10888;SDS011;5497;51.388;6.780;2023-03-01T08:31:13;10.93;;;6.77;;
10888;SDS011;5497;51.388;6.780;2023-03-01T08:33:41;11.07;;;6.90;;
10888;SDS011;5497;51.388;6.780;2023-03-01T08:36:10;8.17;;;5.20;;
10888;SDS011;5497;51.388;6.780;2023-03-01T08:38:37;8.60;;;5.30;;
10888;SDS011;5497;51.388;6.780;2023-03-01T08:41:04;13.67;;;6.87;;
10888;SDS011;5497;51.388;6.780;2023-03-01T08:43:31;11.40;;;6.63;;
10888;SDS011;5497;51.388;6.780;2023-03-01T08:45:57;12.07;;;7.80;;
10888;SDS011;5497;51.388;6.780;2023-03-01T08:48:24;12.00;;;6.67;;
10888;SDS011;5497;51.388;6.780;2023-03-01T08:50:53;7.90;;;4.47;;
10888;SDS011;5497;51.388;6.780;2023-03-01T08:53:21;12.13;;;6.77;;
10888;SDS011;5497;51.388;6.780;2023-03-01T08:55:49;10.63;;;6.50;;
10888;SDS011;5497;51.388;6.780;2023-03-01T08:58:16;9.67;;;5.87;;
10888;SDS011;5497;51.388;6.780;2023-03-01T09:00:42;9.70;;;6.73;;
10888;SDS011;5497;51.388;6.780;2023-03-01T09:03:09;11.73;;;6.63;;
10888;SDS011;5497;51.388;6.780;2023-03-01T09:05:36;13.60;;;7.10;;
10888;SDS011;5497;51.388;6.780;2023-03-01T09:08:03;9.80;;;6.50;;
10888;SDS011;5497;51.388;6.780;2023-03-01T09:10:32;10.90;;;6.07;;
10888;SDS011;5497;51.388;6.780;2023-03-01T09:12:59;11.63;;;6.73;;
10888;SDS011;5497;51.388;6.780;2023-03-01T09:15:25;8.30;;;5.43;;
10888;SDS011;5497;51.388;6.780;2023-03-01T09:17:53;11.73;;;6.20;;
10888;SDS011;5497;51.388;6.780;2023-03-01T09:20:19;10.80;;;4.60;;
10888;SDS011;5497;51.388;6.780;2023-03-01T09:22:46;9.70;;;5.63;;
10888;SDS011;5497;51.388;6.780;2023-03-01T09:25:13;9.23;;;5.00;;
10888;SDS011;5497;51.388;6.780;2023-03-01T09:27:42;8.73;;;4.97;;
10888;SDS011;5497;51.388;6.780;2023-03-01T09:30:09;14.10;;;6.90;;
10888;SDS011;5497;51.388;6.780;2023-03-01T09:32:37;12.47;;;6.47;;
10888;SDS011;5497;51.388;6.780;2023-03-01T09:35:07;14.03;;;7.50;;
10888;SDS011;5497;51.388;6.780;2023-03-01T09:37:35;13.73;;;7.13;;
10888;SDS011;5497;51.388;6.780;2023-03-01T09:40:03;12.30;;;6.37;;
10888;SDS011;5497;51.388;6.780;2023-03-01T09:42:33;13.37;;;7.30;;
10888;SDS011;5497;51.388;6.780;2023-03-01T09:45:04;10.27;;;5.97;;
10888;SDS011;5497;51.388;6.780;2023-03-01T09:47:33;13.03;;;7.33;;
10888;SDS011;5497;51.388;6.780;2023-03-01T09:50:04;10.13;;;5.63;;
10888;SDS011;5497;51.388;6.780;2023-03-01T09:52:36;10.43;;;5.53;;
10888;SDS011;5497;51.388;6.780;2023-03-01T09:55:08;10.90;;;5.33;;
10888;SDS011;5497;51.388;6.780;2023-03-01T09:57:40;10.77;;;5.60;;
10888;SDS011;5497;51.388;6.780;2023-03-01T10:00:15;13.80;;;6.37;;
10888;SDS011;5497;51.388;6.780;2023-03-01T10:02:51;9.23;;;5.53;;
10888;SDS011;5497;51.388;6.780;2023-03-01T10:05:29;12.37;;;6.70;;
10888;SDS011;5497;51.388;6.780;2023-03-01T10:08:06;12.50;;;6.77;;
10888;SDS011;5497;51.388;6.780;2023-03-01T10:10:56;12.27;;;6.33;;
10888;SDS011;5497;51.388;6.780;2023-03-01T10:13:25;8.57;;;5.03;;
10888;SDS011;5497;51.388;6.780;2023-03-01T10:15:57;12.53;;;7.50;;
10888;SDS011;5497;51.388;6.780;2023-03-01T10:18:31;16.43;;;6.17;;
10888;SDS011;5497;51.388;6.780;2023-03-01T10:21:02;11.27;;;6.67;;
10888;SDS011;5497;51.388;6.780;2023-03-01T10:23:36;11.90;;;5.77;;
10888;SDS011;5497;51.388;6.780;2023-03-01T10:26:07;13.07;;;5.57;;
10888;SDS011;5497;51.388;6.780;2023-03-01T10:28:46;12.60;;;6.90;;
10888;SDS011;5497;51.388;6.780;2023-03-01T10:31:22;13.67;;;7.33;;
10888;SDS011;5497;51.388;6.780;2023-03-01T10:33:53;12.10;;;6.93;;
10888;SDS011;5497;51.388;6.780;2023-03-01T10:36:22;11.07;;;6.03;;
10888;SDS011;5497;51.388;6.780;2023-03-01T10:38:50;9.47;;;5.13;;
10888;SDS011;5497;51.388;6.780;2023-03-01T10:41:19;9.60;;;5.00;;
10888;SDS011;5497;51.388;6.780;2023-03-01T10:43:49;14.47;;;7.17;;
10888;SDS011;5497;51.388;6.780;2023-03-01T10:46:27;10.10;;;5.10;;
10888;SDS011;5497;51.388;6.780;2023-03-01T10:49:05;11.30;;;5.50;;
10888;SDS011;5497;51.388;6.780;2023-03-01T10:51:34;12.43;;;6.80;;
10888;SDS011;5497;51.388;6.780;2023-03-01T10:54:00;11.53;;;6.23;;
10888;SDS011;5497;51.388;6.780;2023-03-01T10:56:29;15.33;;;6.73;;
10888;SDS011;5497;51.388;6.780;2023-03-01T10:59:19;13.23;;;6.70;;
10888;SDS011;5497;51.388;6.780;2023-03-01T11:02:02;12.50;;;6.47;;
10888;SDS011;5497;51.388;6.780;2023-03-01T11:04:57;10.73;;;5.20;;
10888;SDS011;5497;51.388;6.780;2023-03-01T11:07:26;13.20;;;6.47;;
10888;SDS011;5497;51.388;6.780;2023-03-01T11:09:53;11.60;;;5.73;;
10888;SDS011;5497;51.388;6.780;2023-03-01T11:12:21;11.27;;;5.27;;
10888;SDS011;5497;51.388;6.780;2023-03-01T11:14:48;9.73;;;5.30;;
10888;SDS011;5497;51.388;6.780;2023-03-01T11:17:21;8.73;;;4.93;;
10888;SDS011;5497;51.388;6.780;2023-03-01T11:20:01;12.47;;;6.63;;
10888;SDS011;5497;51.388;6.780;2023-03-01T11:22:40;11.50;;;6.27;;
10888;SDS011;5497;51.388;6.780;2023-03-01T11:25:13;13.30;;;6.90;;
10888;SDS011;5497;51.388;6.780;2023-03-01T11:27:41;8.47;;;4.80;;
10888;SDS011;5497;51.388;6.780;2023-03-01T11:30:13;11.13;;;6.10;;
10888;SDS011;5497;51.388;6.780;2023-03-01T11:32:50;12.17;;;5.83;;
10888;SDS011;5497;51.388;6.780;2023-03-01T11:35:22;9.93;;;6.27;;
10888;SDS011;5497;51.388;6.780;2023-03-01T11:37:55;10.87;;;4.93;;
10888;SDS011;5497;51.388;6.780;2023-03-01T11:40:29;8.20;;;5.37;;
10888;SDS011;5497;51.388;6.780;2023-03-01T11:43:02;11.37;;;5.97;;
10888;SDS011;5497;51.388;6.780;2023-03-01T11:45:39;8.60;;;4.80;;
10888;SDS011;5497;51.388;6.780;2023-03-01T11:48:24;7.83;;;4.10;;
10888;SDS011;5497;51.388;6.780;2023-03-01T11:51:09;11.10;;;5.60;;
10888;SDS011;5497;51.388;6.780;2023-03-01T11:53:54;10.97;;;5.67;;
10888;SDS011;5497;51.388;6.780;2023-03-01T11:56:29;8.90;;;4.83;;
10888;SDS011;5497;51.388;6.780;2023-03-01T11:59:06;11.57;;;6.00;;
10888;SDS011;5497;51.388;6.780;2023-03-01T12:02:07;8.70;;;4.57;;
10888;SDS011;5497;51.388;6.780;2023-03-01T12:05:14;8.30;;;4.87;;
10888;SDS011;5497;51.388;6.780;2023-03-01T12:08:11;9.43;;;5.63;;
10888;SDS011;5497;51.388;6.780;2023-03-01T12:10:44;8.87;;;4.80;;
10888;SDS011;5497;51.388;6.780;2023-03-01T12:13:23;7.67;;;4.77;;
10888;SDS011;5497;51.388;6.780;2023-03-01T12:16:07;8.67;;;5.17;;
10888;SDS011;5497;51.388;6.780;2023-03-01T12:18:57;8.73;;;5.13;;
10888;SDS011;5497;51.388;6.780;2023-03-01T12:21:41;7.20;;;4.57;;
10888;SDS011;5497;51.388;6.780;2023-03-01T12:24:27;7.10;;;5.10;;
10888;SDS011;5497;51.388;6.780;2023-03-01T12:27:19;8.67;;;4.90;;
10888;SDS011;5497;51.388;6.780;2023-03-01T12:30:05;11.27;;;4.83;;
10888;SDS011;5497;51.388;6.780;2023-03-01T12:32:45;7.67;;;4.47;;
10888;SDS011;5497;51.388;6.780;2023-03-01T12:35:33;8.00;;;4.60;;
10888;SDS011;5497;51.388;6.780;2023-03-01T12:38:18;9.37;;;4.40;;
10888;SDS011;5497;51.388;6.780;2023-03-01T12:41:06;8.30;;;5.17;;
10888;SDS011;5497;51.388;6.780;2023-03-01T12:43:53;7.23;;;4.40;;
10888;SDS011;5497;51.388;6.780;2023-03-01T12:46:33;8.50;;;4.27;;
10888;SDS011;5497;51.388;6.780;2023-03-01T12:49:12;11.80;;;4.30;;
10888;SDS011;5497;51.388;6.780;2023-03-01T12:51:43;9.10;;;5.13;;
10888;SDS011;5497;51.388;6.780;2023-03-01T12:54:20;13.47;;;5.50;;
10888;SDS011;5497;51.388;6.780;2023-03-01T12:56:53;10.43;;;5.37;;
10888;SDS011;5497;51.388;6.780;2023-03-01T12:59:24;13.53;;;5.27;;
10888;SDS011;5497;51.388;6.780;2023-03-01T13:02:04;8.17;;;4.90;;
10888;SDS011;5497;51.388;6.780;2023-03-01T13:04:43;7.67;;;4.80;;
10888;SDS011;5497;51.388;6.780;2023-03-01T13:07:23;8.33;;;5.43;;
10888;SDS011;5497;51.388;6.780;2023-03-01T13:10:02;9.17;;;4.63;;
10888;SDS011;5497;51.388;6.780;2023-03-01T13:12:44;10.17;;;5.60;;
10888;SDS011;5497;51.388;6.780;2023-03-01T13:15:29;10.13;;;4.60;;
10888;SDS011;5497;51.388;6.780;2023-03-01T13:18:01;8.53;;;5.20;;
10888;SDS011;5497;51.388;6.780;2023-03-01T13:20:31;8.80;;;4.60;;
10888;SDS011;5497;51.388;6.780;2023-03-01T13:23:12;11.37;;;6.33;;
10888;SDS011;5497;51.388;6.780;2023-03-01T13:26:05;7.17;;;4.20;;
10888;SDS011;5497;51.388;6.780;2023-03-01T13:28:58;10.80;;;4.67;;
10888;SDS011;5497;51.388;6.780;2023-03-01T13:34:45;8.37;;;4.07;;
10888;SDS011;5497;51.388;6.780;2023-03-01T13:37:24;9.83;;;5.23;;
10888;SDS011;5497;51.388;6.780;2023-03-01T13:39:55;12.47;;;6.13;;
10888;SDS011;5497;51.388;6.780;2023-03-01T13:45:16;10.80;;;5.53;;
10888;SDS011;5497;51.388;6.780;2023-03-01T13:47:54;10.47;;;5.60;;
10888;SDS011;5497;51.388;6.780;2023-03-01T13:50:25;9.87;;;4.90;;
10888;SDS011;5497;51.388;6.780;2023-03-01T13:52:56;12.37;;;4.23;;
10888;SDS011;5497;51.388;6.780;2023-03-01T13:55:37;11.10;;;6.07;;
10888;SDS011;5497;51.388;6.780;2023-03-01T13:58:16;8.73;;;5.50;;
10888;SDS011;5497;51.388;6.780;2023-03-01T14:00:57;9.57;;;5.50;;
10888;SDS011;5497;51.388;6.780;2023-03-01T14:03:26;12.27;;;5.90;;
10888;SDS011;5497;51.388;6.780;2023-03-01T14:06:01;9.23;;;5.03;;
10888;SDS011;5497;51.388;6.780;2023-03-01T14:08:36;9.10;;;5.47;;
10888;SDS011;5497;51.388;6.780;2023-03-01T14:17:10;10.33;;;5.80;;
10888;SDS011;5497;51.388;6.780;2023-03-01T14:19:54;10.27;;;5.40;;
10888;SDS011;5497;51.388;6.780;2023-03-01T14:22:24;12.40;;;6.23;;
10888;SDS011;5497;51.388;6.780;2023-03-01T14:24:57;11.47;;;5.07;;
10888;SDS011;5497;51.388;6.780;2023-03-01T14:27:30;10.50;;;6.13;;
10888;SDS011;5497;51.388;6.780;2023-03-01T14:30:02;9.57;;;4.87;;
10888;SDS011;5497;51.388;6.780;2023-03-01T14:32:48;8.27;;;5.50;;
10888;SDS011;5497;51.388;6.780;2023-03-01T14:35:20;9.33;;;5.37;;
10888;SDS011;5497;51.388;6.780;2023-03-01T14:37:49;6.87;;;4.47;;
10888;SDS011;5497;51.388;6.780;2023-03-01T14:40:20;9.70;;;4.97;;
10888;SDS011;5497;51.388;6.780;2023-03-01T14:42:50;10.50;;;5.83;;
10888;SDS011;5497;51.388;6.780;2023-03-01T14:45:18;9.63;;;5.40;;
10888;SDS011;5497;51.388;6.780;2023-03-01T14:47:48;10.00;;;4.80;;
10888;SDS011;5497;51.388;6.780;2023-03-01T14:50:19;10.40;;;5.60;;
10888;SDS011;5497;51.388;6.780;2023-03-01T14:52:54;8.93;;;5.07;;
10888;SDS011;5497;51.388;6.780;2023-03-01T14:55:25;10.20;;;6.20;;
10888;SDS011;5497;51.388;6.780;2023-03-01T14:57:56;13.03;;;7.07;;
10888;SDS011;5497;51.388;6.780;2023-03-01T15:00:25;9.43;;;5.90;;
10888;SDS011;5497;51.388;6.780;2023-03-01T15:02:56;8.07;;;4.33;;
10888;SDS011;5497;51.388;6.780;2023-03-01T15:05:29;11.27;;;5.73;;
10888;SDS011;5497;51.388;6.780;2023-03-01T15:07:58;9.30;;;4.40;;
10888;SDS011;5497;51.388;6.780;2023-03-01T15:10:35;12.30;;;6.20;;
10888;SDS011;5497;51.388;6.780;2023-03-01T15:13:11;10.10;;;5.43;;
10888;SDS011;5497;51.388;6.780;2023-03-01T15:15:40;9.87;;;6.30;;
10888;SDS011;5497;51.388;6.780;2023-03-01T15:18:17;12.37;;;5.80;;
10888;SDS011;5497;51.388;6.780;2023-03-01T15:20:46;9.67;;;5.33;;
10888;SDS011;5497;51.388;6.780;2023-03-01T15:23:23;10.73;;;6.20;;
10888;SDS011;5497;51.388;6.780;2023-03-01T15:25:53;9.80;;;5.03;;
10888;SDS011;5497;51.388;6.780;2023-03-01T15:28:25;10.33;;;6.40;;
10888;SDS011;5497;51.388;6.780;2023-03-01T15:30:55;17.90;;;7.37;;
10888;SDS011;5497;51.388;6.780;2023-03-01T15:33:30;11.53;;;5.97;;
10888;SDS011;5497;51.388;6.780;2023-03-01T15:36:03;8.60;;;5.30;;
10888;SDS011;5497;51.388;6.780;2023-03-01T15:38:52;8.50;;;4.53;;